sensor_id;sensor_type;location;lat;lon;timestamp;pressure;altitude;pressure_sealevel;temperature;humidity
78056;BME280;67666;55.862;49.094;2023-02-26T00:01:24;100057.63;;;21.26;17.15
78056;BME280;67666;55.862;49.094;2023-02-26T00:03:52;100059.31;;;21.30;17.19
78056;BME280;67666;55.862;49.094;2023-02-26T00:06:19;100066.25;;;21.31;17.00
78056;BME280;67666;55.862;49.094;2023-02-26T00:08:46;100067.16;;;21.27;17.27
78056;BME280;67666;55.862;49.094;2023-02-26T00:11:12;100059.31;;;21.28;17.23
78056;BME280;67666;55.862;49.094;2023-02-26T00:13:40;100055.00;;;21.26;17.04
78056;BME280;67666;55.862;49.094;2023-02-26T00:16:33;100058.47;;;21.28;17.05
78056;BME280;67666;55.862;49.094;2023-02-26T00:19:03;100052.31;;;21.30;17.08
78056;BME280;67666;55.862;49.094;2023-02-26T00:21:31;100045.41;;;21.26;17.19
78056;BME280;67666;55.862;49.094;2023-02-26T00:23:57;100059.31;;;21.28;17.20
78056;BME280;67666;55.862;49.094;2023-02-26T00:26:26;100063.63;;;21.31;17.07
78056;BME280;67666;55.862;49.094;2023-02-26T00:28:54;100052.31;;;21.30;17.00
78056;BME280;67666;55.862;49.094;2023-02-26T00:31:21;100060.19;;;21.29;17.18
78056;BME280;67666;55.862;49.094;2023-02-26T00:33:55;100067.16;;;21.28;17.08
78056;BME280;67666;55.862;49.094;2023-02-26T00:36:51;100071.66;;;21.22;17.23
78056;BME280;67666;55.862;49.094;2023-02-26T00:42:03;100075.97;;;21.23;17.07
78056;BME280;67666;55.862;49.094;2023-02-26T00:44:30;100074.19;;;21.25;17.02
78056;BME280;67666;55.862;49.094;2023-02-26T00:47:34;100075.03;;;21.25;17.21
78056;BME280;67666;55.862;49.094;2023-02-26T00:50:23;100075.00;;;21.27;17.17
78056;BME280;67666;55.862;49.094;2023-02-26T00:53:16;100076.69;;;21.31;17.03
78056;BME280;67666;55.862;49.094;2023-02-26T00:55:47;100073.19;;;21.32;17.17
78056;BME280;67666;55.862;49.094;2023-02-26T00:58:13;100076.75;;;21.29;17.12
78056;BME280;67666;55.862;49.094;2023-02-26T01:00:39;100081.91;;;21.31;17.20
78056;BME280;67666;55.862;49.094;2023-02-26T01:03:06;100087.16;;;21.31;17.23
78056;BME280;67666;55.862;49.094;2023-02-26T01:05:33;100091.47;;;21.33;17.07
78056;BME280;67666;55.862;49.094;2023-02-26T01:08:17;100093.13;;;21.36;16.99
78056;BME280;67666;55.862;49.094;2023-02-26T01:10:45;100087.19;;;21.29;16.87
78056;BME280;67666;55.862;49.094;2023-02-26T01:13:12;100095.94;;;21.25;17.13
78056;BME280;67666;55.862;49.094;2023-02-26T01:15:42;100090.75;;;21.24;17.18
78056;BME280;67666;55.862;49.094;2023-02-26T01:18:13;100096.78;;;21.26;17.21
78056;BME280;67666;55.862;49.094;2023-02-26T01:21:03;100100.25;;;21.26;17.28
78056;BME280;67666;55.862;49.094;2023-02-26T01:23:38;100103.63;;;21.33;16.99
78056;BME280;67666;55.862;49.094;2023-02-26T01:26:17;100101.06;;;21.31;17.20
78056;BME280;67666;55.862;49.094;2023-02-26T01:28:45;100097.63;;;21.29;17.29
78056;BME280;67666;55.862;49.094;2023-02-26T01:31:15;100103.63;;;21.33;17.11
78056;BME280;67666;55.862;49.094;2023-02-26T01:33:46;100098.41;;;21.33;16.97
78056;BME280;67666;55.862;49.094;2023-02-26T01:36:20;100093.19;;;21.33;17.00
78056;BME280;67666;55.862;49.094;2023-02-26T01:39:27;100101.03;;;21.33;17.11
78056;BME280;67666;55.862;49.094;2023-02-26T01:42:02;100101.03;;;21.33;17.08
78056;BME280;67666;55.862;49.094;2023-02-26T01:44:54;100097.56;;;21.32;17.24
78056;BME280;67666;55.862;49.094;2023-02-26T01:47:44;100098.41;;;21.33;16.97
78056;BME280;67666;55.862;49.094;2023-02-26T01:50:15;100101.03;;;21.33;17.08
78056;BME280;67666;55.862;49.094;2023-02-26T01:55:17;100115.03;;;21.29;17.17
78056;BME280;67666;55.862;49.094;2023-02-26T01:57:47;100108.94;;;21.30;17.12
78056;BME280;67666;55.862;49.094;2023-02-26T02:00:15;100114.19;;;21.27;17.19
78056;BME280;67666;55.862;49.094;2023-02-26T02:02:42;100113.31;;;21.28;17.09
78056;BME280;67666;55.862;49.094;2023-02-26T02:05:16;100108.94;;;21.28;17.25
78056;BME280;67666;55.862;49.094;2023-02-26T02:07:46;100111.56;;;21.30;17.08
78056;BME280;67666;55.862;49.094;2023-02-26T02:10:12;100113.25;;;21.31;17.08
78056;BME280;67666;55.862;49.094;2023-02-26T02:18:31;100101.91;;;21.32;17.00
78056;BME280;67666;55.862;49.094;2023-02-26T02:35:19;100094.13;;;21.30;17.32
78056;BME280;67666;55.862;49.094;2023-02-26T02:38:03;100090.66;;;21.30;17.03
78056;BME280;67666;55.862;49.094;2023-02-26T02:40:36;100090.66;;;21.28;17.28
78056;BME280;67666;55.862;49.094;2023-02-26T02:43:10;100090.66;;;21.30;17.08
78056;BME280;67666;55.862;49.094;2023-02-26T02:45:46;100099.34;;;21.29;17.27
78056;BME280;67666;55.862;49.094;2023-02-26T02:48:23;100085.44;;;21.28;17.36
78056;BME280;67666;55.862;49.094;2023-02-26T02:50:58;100099.34;;;21.29;17.36
78056;BME280;67666;55.862;49.094;2023-02-26T02:56:01;100093.25;;;21.30;17.32
78056;BME280;67666;55.862;49.094;2023-02-26T02:58:33;100097.63;;;21.29;17.40
78056;BME280;67666;55.862;49.094;2023-02-26T03:01:05;100100.41;;;21.22;17.07
78056;BME280;67666;55.862;49.094;2023-02-26T03:06:05;100101.22;;;21.24;17.37
78056;BME280;67666;55.862;49.094;2023-02-26T03:08:33;100094.22;;;21.24;17.46
78056;BME280;67666;55.862;49.094;2023-02-26T03:11:01;100101.16;;;21.25;17.37
78056;BME280;67666;55.862;49.094;2023-02-26T03:13:27;100100.44;;;21.18;17.47
78056;BME280;67666;55.862;49.094;2023-02-26T03:16:06;100096.88;;;21.21;17.27
78056;BME280;67666;55.862;49.094;2023-02-26T03:25:14;100091.56;;;21.26;17.37
78056;BME280;67666;55.862;49.094;2023-02-26T03:35:41;100087.22;;;21.26;17.39
78056;BME280;67666;55.862;49.094;2023-02-26T03:38:39;100091.63;;;21.24;17.51
78056;BME280;67666;55.862;49.094;2023-02-26T03:41:19;100092.47;;;21.25;17.45
78056;BME280;67666;55.862;49.094;2023-02-26T03:43:55;100082.97;;;21.22;17.49
78056;BME280;67666;55.862;49.094;2023-02-26T03:46:41;100097.78;;;21.22;17.44
78056;BME280;67666;55.862;49.094;2023-02-26T03:49:12;100086.44;;;21.23;17.60
78056;BME280;67666;55.862;49.094;2023-02-26T03:51:42;100077.69;;;21.24;17.49
78056;BME280;67666;55.862;49.094;2023-02-26T03:54:34;100089.94;;;21.22;17.62
78056;BME280;67666;55.862;49.094;2023-02-26T03:57:22;100083.75;;;21.26;17.53
78056;BME280;67666;55.862;49.094;2023-02-26T04:00:09;100094.19;;;21.26;17.46
78056;BME280;67666;55.862;49.094;2023-02-26T04:02:58;100091.56;;;21.27;17.55
78056;BME280;67666;55.862;49.094;2023-02-26T04:05:28;100096.78;;;21.26;17.57
78056;BME280;67666;55.862;49.094;2023-02-26T04:07:57;100104.63;;;21.27;17.79
78056;BME280;67666;55.862;49.094;2023-02-26T04:13:19;100094.00;;;21.36;17.49
78056;BME280;67666;55.862;49.094;2023-02-26T04:15:46;100095.78;;;21.33;17.77
78056;BME280;67666;55.862;49.094;2023-02-26T04:18:13;100101.91;;;21.33;17.73
78056;BME280;67666;55.862;49.094;2023-02-26T04:20:39;100103.63;;;21.33;17.64
78056;BME280;67666;55.862;49.094;2023-02-26T04:23:06;100108.84;;;21.34;17.64
78056;BME280;67666;55.862;49.094;2023-02-26T04:25:32;100105.44;;;21.31;17.66
78056;BME280;67666;55.862;49.094;2023-02-26T04:28:00;100114.09;;;21.33;17.83
78056;BME280;67666;55.862;49.094;2023-02-26T04:30:26;100107.13;;;21.32;17.76
78056;BME280;67666;55.862;49.094;2023-02-26T04:32:53;100099.34;;;21.30;17.92
78056;BME280;67666;55.862;49.094;2023-02-26T04:35:20;100103.63;;;21.33;17.87
78056;BME280;67666;55.862;49.094;2023-02-26T04:37:47;100097.53;;;21.34;18.02
78056;BME280;67666;55.862;49.094;2023-02-26T04:40:13;100098.34;;;21.36;17.83
78056;BME280;67666;55.862;49.094;2023-02-26T04:42:39;100105.28;;;21.37;17.83
78056;BME280;67666;55.862;49.094;2023-02-26T04:45:06;100106.16;;;21.37;17.83
78056;BME280;67666;55.862;49.094;2023-02-26T04:47:35;100108.72;;;21.40;18.00
78056;BME280;67666;55.862;49.094;2023-02-26T04:50:02;100102.69;;;21.37;17.97
78056;BME280;67666;55.862;49.094;2023-02-26T04:52:30;100103.53;;;21.37;17.79
78056;BME280;67666;55.862;49.094;2023-02-26T04:54:57;100104.38;;;21.39;18.01
78056;BME280;67666;55.862;49.094;2023-02-26T04:57:23;100102.59;;;21.41;18.08
78056;BME280;67666;55.862;49.094;2023-02-26T04:59:50;100097.31;;;21.43;18.22
78056;BME280;67666;55.862;49.094;2023-02-26T05:02:17;100095.59;;;21.42;18.19
78056;BME280;67666;55.862;49.094;2023-02-26T05:04:47;100084.19;;;21.46;18.13
78056;BME280;67666;55.862;49.094;2023-02-26T05:07:13;100091.09;;;21.49;18.13
78056;BME280;67666;55.862;49.094;2023-02-26T05:09:41;100089.94;;;21.62;18.58
78056;BME280;67666;55.862;49.094;2023-02-26T05:12:07;100081.94;;;21.68;18.97
78056;BME280;67666;55.862;49.094;2023-02-26T05:14:34;100085.41;;;21.68;18.77
78056;BME280;67666;55.862;49.094;2023-02-26T05:17:00;100072.34;;;21.68;18.70
78056;BME280;67666;55.862;49.094;2023-02-26T05:19:27;100066.38;;;21.63;18.62
78056;BME280;67666;55.862;49.094;2023-02-26T05:21:53;100067.69;;;21.44;18.49
78056;BME280;67666;55.862;49.094;2023-02-26T05:24:20;100063.63;;;21.31;18.69
78056;BME280;67666;55.862;49.094;2023-02-26T05:26:46;100070.69;;;21.26;18.68
78056;BME280;67666;55.862;49.094;2023-02-26T05:29:13;100067.34;;;21.19;19.14
78056;BME280;67666;55.862;49.094;2023-02-26T05:31:39;100069.06;;;21.22;19.37
78056;BME280;67666;55.862;49.094;2023-02-26T05:34:05;100070.00;;;21.17;19.40
78056;BME280;67666;55.862;49.094;2023-02-26T05:36:32;100062.13;;;21.19;19.54
78056;BME280;67666;55.862;49.094;2023-02-26T05:38:58;100073.47;;;21.18;19.69
78056;BME280;67666;55.862;49.094;2023-02-26T05:41:24;100068.22;;;21.20;19.74
78056;BME280;67666;55.862;49.094;2023-02-26T05:43:51;100065.53;;;21.23;19.82
78056;BME280;67666;55.862;49.094;2023-02-26T05:46:17;100070.81;;;21.20;20.04
78056;BME280;67666;55.862;49.094;2023-02-26T05:48:43;100059.34;;;21.27;19.96
78056;BME280;67666;55.862;49.094;2023-02-26T05:51:10;100062.94;;;21.23;20.09
78056;BME280;67666;55.862;49.094;2023-02-26T05:53:36;100052.63;;;21.15;19.97
78056;BME280;67666;55.862;49.094;2023-02-26T05:56:02;100054.38;;;21.16;20.37
78056;BME280;67666;55.862;49.094;2023-02-26T05:58:30;100043.97;;;21.13;20.27
78056;BME280;67666;55.862;49.094;2023-02-26T06:00:59;100039.56;;;21.16;20.53
78056;BME280;67666;55.862;49.094;2023-02-26T06:03:25;100028.22;;;21.17;20.10
78056;BME280;67666;55.862;49.094;2023-02-26T06:05:51;100035.88;;;21.25;20.24
78056;BME280;67666;55.862;49.094;2023-02-26T06:08:17;100034.03;;;21.30;20.40
78056;BME280;67666;55.862;49.094;2023-02-26T06:10:44;100036.72;;;21.26;20.61
78056;BME280;67666;55.862;49.094;2023-02-26T06:13:10;100029.72;;;21.28;20.37
78056;BME280;67666;55.862;49.094;2023-02-26T06:15:36;100038.44;;;21.27;20.49
78056;BME280;67666;55.862;49.094;2023-02-26T06:18:03;100026.38;;;21.23;20.75
78056;BME280;67666;55.862;49.094;2023-02-26T06:20:29;100047.28;;;21.21;21.05
78056;BME280;67666;55.862;49.094;2023-02-26T06:22:56;100036.97;;;21.15;20.60
78056;BME280;67666;55.862;49.094;2023-02-26T06:25:22;100024.94;;;21.08;20.64
78056;BME280;67666;55.862;49.094;2023-02-26T06:27:48;100035.63;;;20.97;20.71
78056;BME280;67666;55.862;49.094;2023-02-26T06:30:15;100026.06;;;20.96;20.91
78056;BME280;67666;55.862;49.094;2023-02-26T06:32:43;100023.03;;;21.14;20.97
78056;BME280;67666;55.862;49.094;2023-02-26T06:35:09;100019.06;;;20.98;20.88
78056;BME280;67666;55.862;49.094;2023-02-26T06:37:36;100012.88;;;21.02;20.88
78056;BME280;67666;55.862;49.094;2023-02-26T06:40:03;100012.88;;;21.02;20.84
78056;BME280;67666;55.862;49.094;2023-02-26T06:42:29;100000.25;;;20.84;20.77
78056;BME280;67666;55.862;49.094;2023-02-26T06:44:56;100003.75;;;20.83;20.96
78056;BME280;67666;55.862;49.094;2023-02-26T06:47:22;99997.03;;;20.70;20.82
78056;BME280;67666;55.862;49.094;2023-02-26T06:49:48;99990.25;;;20.62;20.81
78056;BME280;67666;55.862;49.094;2023-02-26T06:52:15;100003.03;;;20.76;20.90
78056;BME280;67666;55.862;49.094;2023-02-26T06:54:41;99999.44;;;20.80;21.23
78056;BME280;67666;55.862;49.094;2023-02-26T06:57:07;99993.22;;;20.86;21.11
78056;BME280;67666;55.862;49.094;2023-02-26T06:59:34;99989.81;;;20.84;21.32
78056;BME280;67666;55.862;49.094;2023-02-26T07:02:00;99991.41;;;20.89;21.17
78056;BME280;67666;55.862;49.094;2023-02-26T07:04:26;99981.75;;;20.93;21.10
78056;BME280;67666;55.862;49.094;2023-02-26T07:07:08;99989.56;;;20.95;21.10
78056;BME280;67666;55.862;49.094;2023-02-26T07:09:34;99986.09;;;20.94;21.17
78056;BME280;67666;55.862;49.094;2023-02-26T07:12:01;99980.94;;;20.91;21.36
78056;BME280;67666;55.862;49.094;2023-02-26T07:14:27;99971.44;;;20.87;21.61
78056;BME280;67666;55.862;49.094;2023-02-26T07:16:53;99984.63;;;20.82;21.65
78056;BME280;67666;55.862;49.094;2023-02-26T07:19:20;99976.66;;;20.87;21.49
78056;BME280;67666;55.862;49.094;2023-02-26T07:21:46;99956.63;;;20.89;21.37
78056;BME280;67666;55.862;49.094;2023-02-26T07:24:13;99961.84;;;20.89;21.43
78056;BME280;67666;55.862;49.094;2023-02-26T07:26:40;99953.97;;;20.90;21.39
78056;BME280;67666;55.862;49.094;2023-02-26T07:29:06;99937.41;;;20.91;21.13
78056;BME280;67666;55.862;49.094;2023-02-26T07:31:33;99920.00;;;20.92;21.24
78056;BME280;67666;55.862;49.094;2023-02-26T07:33:59;99915.47;;;20.99;21.07
78056;BME280;67666;55.862;49.094;2023-02-26T07:36:25;99917.19;;;21.01;21.02
78056;BME280;67666;55.862;49.094;2023-02-26T07:38:51;99914.41;;;21.07;20.84
78056;BME280;67666;55.862;49.094;2023-02-26T07:41:18;99924.00;;;21.07;20.96
78056;BME280;67666;55.862;49.094;2023-02-26T07:43:44;99933.66;;;21.05;21.01
78056;BME280;67666;55.862;49.094;2023-02-26T07:46:11;99951.13;;;21.01;20.96
78056;BME280;67666;55.862;49.094;2023-02-26T07:48:38;99954.63;;;21.00;21.01
78056;BME280;67666;55.862;49.094;2023-02-26T07:51:04;99952.06;;;20.97;20.83
78056;BME280;67666;55.862;49.094;2023-02-26T07:53:33;99945.13;;;20.96;20.96
78056;BME280;67666;55.862;49.094;2023-02-26T07:56:00;99931.13;;;21.00;20.79
78056;BME280;67666;55.862;49.094;2023-02-26T07:58:26;99929.41;;;20.99;20.83
78056;BME280;67666;55.862;49.094;2023-02-26T08:00:53;99934.56;;;21.02;20.81
78056;BME280;67666;55.862;49.094;2023-02-26T08:03:19;99935.25;;;21.10;20.59
78056;BME280;67666;55.862;49.094;2023-02-26T08:05:46;99930.94;;;21.08;20.63
78056;BME280;67666;55.862;49.094;2023-02-26T08:08:12;99931.09;;;21.02;20.71
78056;BME280;67666;55.862;49.094;2023-02-26T08:10:39;99927.56;;;21.03;20.63
78056;BME280;67666;55.862;49.094;2023-02-26T08:13:06;99915.38;;;21.05;20.65
78056;BME280;67666;55.862;49.094;2023-02-26T08:15:33;99913.47;;;21.10;20.48
78056;BME280;67666;55.862;49.094;2023-02-26T08:17:59;99906.38;;;21.16;20.45
78056;BME280;67666;55.862;49.094;2023-02-26T08:20:25;99904.41;;;21.25;20.56
78056;BME280;67666;55.862;49.094;2023-02-26T08:22:52;99920.94;;;21.25;20.35
78056;BME280;67666;55.862;49.094;2023-02-26T08:25:18;99908.00;;;21.21;20.50
78056;BME280;67666;55.862;49.094;2023-02-26T08:27:44;99910.66;;;21.19;20.11
78056;BME280;67666;55.862;49.094;2023-02-26T08:30:11;99896.09;;;21.10;20.42
78056;BME280;67666;55.862;49.094;2023-02-26T08:32:38;99907.44;;;21.08;20.47
78056;BME280;67666;55.862;49.094;2023-02-26T08:35:05;99906.75;;;21.01;20.52
78056;BME280;67666;55.862;49.094;2023-02-26T08:37:31;99905.94;;;20.99;20.35
78056;BME280;67666;55.862;49.094;2023-02-26T08:39:58;99921.53;;;21.01;20.49
78056;BME280;67666;55.862;49.094;2023-02-26T08:42:24;99897.97;;;21.04;20.61
78056;BME280;67666;55.862;49.094;2023-02-26T08:44:50;99889.25;;;21.05;20.37
78056;BME280;67666;55.862;49.094;2023-02-26T08:47:17;99893.59;;;21.04;20.31
78056;BME280;67666;55.862;49.094;2023-02-26T08:49:43;99888.47;;;21.01;20.40
78056;BME280;67666;55.862;49.094;2023-02-26T08:52:09;99885.00;;;21.01;20.34
78056;BME280;67666;55.862;49.094;2023-02-26T08:54:36;99872.09;;;20.95;20.83
78056;BME280;67666;55.862;49.094;2023-02-26T08:57:02;99876.41;;;20.96;20.53
78056;BME280;67666;55.862;49.094;2023-02-26T08:59:28;99866.78;;;20.98;20.50
78056;BME280;67666;55.862;49.094;2023-02-26T09:01:55;99862.25;;;21.04;20.34
78056;BME280;67666;55.862;49.094;2023-02-26T09:04:21;99855.28;;;21.06;20.25
78056;BME280;67666;55.862;49.094;2023-02-26T09:06:48;99878.72;;;21.08;20.25
78056;BME280;67666;55.862;49.094;2023-02-26T09:09:14;99854.44;;;21.04;20.20
78056;BME280;67666;55.862;49.094;2023-02-26T09:11:40;99843.03;;;21.08;20.33
78056;BME280;67666;55.862;49.094;2023-02-26T09:14:06;99833.47;;;21.07;20.14
78056;BME280;67666;55.862;49.094;2023-02-26T09:16:33;99839.66;;;21.03;20.14
78056;BME280;67666;55.862;49.094;2023-02-26T09:19:03;99826.59;;;21.03;20.31
78056;BME280;67666;55.862;49.094;2023-02-26T09:21:30;99823.19;;;21.01;20.26
78056;BME280;67666;55.862;49.094;2023-02-26T09:23:56;99827.47;;;21.04;20.18
78056;BME280;67666;55.862;49.094;2023-02-26T09:26:22;99830.94;;;21.04;20.26
78056;BME280;67666;55.862;49.094;2023-02-26T09:28:49;99823.09;;;21.04;20.13
78056;BME280;67666;55.862;49.094;2023-02-26T09:31:16;99820.69;;;20.97;20.18
78056;BME280;67666;55.862;49.094;2023-02-26T09:33:42;99810.25;;;20.97;20.27
78056;BME280;67666;55.862;49.094;2023-02-26T09:36:09;99805.06;;;20.95;20.38
78056;BME280;67666;55.862;49.094;2023-02-26T09:38:35;99808.50;;;20.97;20.38
78056;BME280;67666;55.862;49.094;2023-02-26T09:41:06;99801.66;;;20.91;20.48
78056;BME280;67666;55.862;49.094;2023-02-26T09:43:53;99806.78;;;20.96;20.21
78056;BME280;67666;55.862;49.094;2023-02-26T09:49:33;99801.50;;;20.99;20.25
78056;BME280;67666;55.862;49.094;2023-02-26T09:52:29;99796.38;;;20.95;20.21
78056;BME280;67666;55.862;49.094;2023-02-26T09:55:26;99788.56;;;20.93;20.43
78056;BME280;67666;55.862;49.094;2023-02-26T09:57:58;99786.97;;;20.89;20.44
78056;BME280;67666;55.862;49.094;2023-02-26T10:00:45;99788.72;;;20.88;20.37
78056;BME280;67666;55.862;49.094;2023-02-26T10:16:52;99760.97;;;20.84;20.63
78056;BME280;67666;55.862;49.094;2023-02-26T10:19:24;99760.00;;;20.87;20.53
78056;BME280;67666;55.862;49.094;2023-02-26T10:22:25;99756.59;;;20.85;20.63
78056;BME280;67666;55.862;49.094;2023-02-26T10:25:00;99734.88;;;20.84;20.45
78056;BME280;67666;55.862;49.094;2023-02-26T10:33:05;99716.47;;;20.89;20.59
78056;BME280;67666;55.862;49.094;2023-02-26T10:35:41;99719.16;;;20.87;20.48
78056;BME280;67666;55.862;49.094;2023-02-26T10:38:14;99730.34;;;20.91;20.52
78056;BME280;67666;55.862;49.094;2023-02-26T10:40:46;99766.13;;;20.86;20.83
78056;BME280;67666;55.862;49.094;2023-02-26T10:51:14;99754.00;;;20.85;20.72
78056;BME280;67666;55.862;49.094;2023-02-26T10:53:57;99757.47;;;20.85;20.63
78056;BME280;67666;55.862;49.094;2023-02-26T10:56:30;99739.22;;;20.84;20.78
78056;BME280;67666;55.862;49.094;2023-02-26T10:58:57;99746.16;;;20.85;20.43
78056;BME280;67666;55.862;49.094;2023-02-26T11:01:27;99740.03;;;20.86;20.73
78056;BME280;67666;55.862;49.094;2023-02-26T11:04:07;99730.50;;;20.85;20.73
78056;BME280;67666;55.862;49.094;2023-02-26T11:06:58;99737.44;;;20.86;20.60
78056;BME280;67666;55.862;49.094;2023-02-26T11:09:32;99728.84;;;20.82;20.88
78056;BME280;67666;55.862;49.094;2023-02-26T11:12:12;99745.38;;;20.81;20.87
78056;BME280;67666;55.862;49.094;2023-02-26T11:14:40;99732.31;;;20.83;20.73
78056;BME280;67666;55.862;49.094;2023-02-26T11:17:14;99728.00;;;20.82;20.74
78056;BME280;67666;55.862;49.094;2023-02-26T11:19:52;99728.94;;;20.78;20.75
78056;BME280;67666;55.862;49.094;2023-02-26T11:22:24;99729.72;;;20.81;20.98
78056;BME280;67666;55.862;49.094;2023-02-26T11:24:51;99731.63;;;20.75;20.90
78056;BME280;67666;55.862;49.094;2023-02-26T11:27:24;99737.69;;;20.75;20.84
78056;BME280;67666;55.862;49.094;2023-02-26T11:29:56;99727.34;;;20.72;20.96
78056;BME280;67666;55.862;49.094;2023-02-26T11:32:30;99708.97;;;20.77;20.87
78056;BME280;67666;55.862;49.094;2023-02-26T11:34:57;99702.03;;;20.76;20.70
78056;BME280;67666;55.862;49.094;2023-02-26T11:37:27;99698.53;;;20.77;21.07
78056;BME280;67666;55.862;49.094;2023-02-26T11:39:58;99705.56;;;20.73;21.16
78056;BME280;67666;55.862;49.094;2023-02-26T11:42:25;99705.53;;;20.75;21.06
78056;BME280;67666;55.862;49.094;2023-02-26T11:44:53;99715.13;;;20.74;21.17
78056;BME280;67666;55.862;49.094;2023-02-26T11:47:25;99716.06;;;20.72;21.08
78056;BME280;67666;55.862;49.094;2023-02-26T11:49:59;99706.47;;;20.72;21.13
78056;BME280;67666;55.862;49.094;2023-02-26T11:52:33;99711.75;;;20.71;21.00
78056;BME280;67666;55.862;49.094;2023-02-26T11:55:04;99708.22;;;20.72;21.06
78056;BME280;67666;55.862;49.094;2023-02-26T11:57:32;99706.59;;;20.68;21.18
78056;BME280;67666;55.862;49.094;2023-02-26T12:00:00;99706.53;;;20.69;21.07
78056;BME280;67666;55.862;49.094;2023-02-26T12:02:31;99703.88;;;20.72;21.10
78056;BME280;67666;55.862;49.094;2023-02-26T12:05:02;99702.13;;;20.73;21.03
78056;BME280;67666;55.862;49.094;2023-02-26T12:07:30;99686.50;;;20.71;21.10
78056;BME280;67666;55.862;49.094;2023-02-26T12:09:57;99693.44;;;20.72;21.50
78056;BME280;67666;55.862;49.094;2023-02-26T12:15:12;99697.69;;;20.75;21.59
78056;BME280;67666;55.862;49.094;2023-02-26T12:20:46;99685.44;;;20.78;21.45
78056;BME280;67666;55.862;49.094;2023-02-26T12:23:35;99688.97;;;20.76;21.89
78056;BME280;67666;55.862;49.094;2023-02-26T12:26:23;99677.69;;;20.75;21.86
78056;BME280;67666;55.862;49.094;2023-02-26T12:29:12;99679.31;;;20.79;22.22
78056;BME280;67666;55.862;49.094;2023-02-26T12:43:09;99677.66;;;20.77;22.51
78056;BME280;67666;55.862;49.094;2023-02-26T12:46:03;99674.22;;;20.75;22.41
78056;BME280;67666;55.862;49.094;2023-02-26T13:19:28;99631.41;;;20.82;22.42
78056;BME280;67666;55.862;49.094;2023-02-26T13:22:05;99634.16;;;20.76;22.45
78056;BME280;67666;55.862;49.094;2023-02-26T13:24:40;99635.91;;;20.77;22.39
78056;BME280;67666;55.862;49.094;2023-02-26T13:27:11;99639.38;;;20.77;22.44
78056;BME280;67666;55.862;49.094;2023-02-26T13:29:55;99632.34;;;20.79;22.39
78056;BME280;67666;55.862;49.094;2023-02-26T13:32:24;99615.75;;;20.82;22.51
78056;BME280;67666;55.862;49.094;2023-02-26T13:35:18;99626.91;;;20.87;22.44
78056;BME280;67666;55.862;49.094;2023-02-26T13:37:48;99623.41;;;21.19;22.11
78056;BME280;67666;55.862;49.094;2023-02-26T13:51:28;99609.72;;;20.80;22.29
78056;BME280;67666;55.862;49.094;2023-02-26T13:59:03;99617.63;;;20.77;22.21
78056;BME280;67666;55.862;49.094;2023-02-26T14:01:53;99615.16;;;20.72;22.15
78056;BME280;67666;55.862;49.094;2023-02-26T14:14:43;99619.41;;;20.76;21.92
78056;BME280;67666;55.862;49.094;2023-02-26T14:19:42;99632.47;;;20.75;21.87
78056;BME280;67666;55.862;49.094;2023-02-26T14:25:14;99628.16;;;20.74;21.74
78056;BME280;67666;55.862;49.094;2023-02-26T14:27:44;99630.75;;;20.74;21.88
78056;BME280;67666;55.862;49.094;2023-02-26T14:30:16;99622.94;;;20.74;22.03
78056;BME280;67666;55.862;49.094;2023-02-26T14:35:38;99612.53;;;20.72;21.95
78056;BME280;67666;55.862;49.094;2023-02-26T14:38:11;99609.09;;;20.70;22.04
78056;BME280;67666;55.862;49.094;2023-02-26T14:40:56;99600.34;;;20.73;22.17
78056;BME280;67666;55.862;49.094;2023-02-26T14:43:34;99613.78;;;20.90;22.13
78056;BME280;67666;55.862;49.094;2023-02-26T14:46:03;99607.72;;;20.89;22.20
78056;BME280;67666;55.862;49.094;2023-02-26T14:48:31;99612.16;;;20.86;22.31
78056;BME280;67666;55.862;49.094;2023-02-26T14:59:38;99604.50;;;20.80;22.30
78056;BME280;67666;55.862;49.094;2023-02-26T15:24:00;99591.38;;;20.83;22.13
78056;BME280;67666;55.862;49.094;2023-02-26T15:26:32;99588.31;;;20.98;22.13
78056;BME280;67666;55.862;49.094;2023-02-26T15:29:04;99578.34;;;21.12;22.06
78056;BME280;67666;55.862;49.094;2023-02-26T15:31:54;99580.53;;;21.26;21.89
78056;BME280;67666;55.862;49.094;2023-02-26T15:34:22;99583.19;;;21.25;22.20
78056;BME280;67666;55.862;49.094;2023-02-26T15:36:50;99570.25;;;21.22;22.31
78056;BME280;67666;55.862;49.094;2023-02-26T15:39:19;99570.31;;;21.18;22.34
78056;BME280;67666;55.862;49.094;2023-02-26T15:41:49;99568.47;;;21.22;22.32
78056;BME280;67666;55.862;49.094;2023-02-26T15:44:28;99556.28;;;21.21;22.29
78056;BME280;67666;55.862;49.094;2023-02-26T15:46:59;99546.81;;;21.18;22.34
78056;BME280;67666;55.862;49.094;2023-02-26T15:49:42;99558.06;;;21.21;22.34
78056;BME280;67666;55.862;49.094;2023-02-26T15:52:13;99544.13;;;21.22;22.26
78056;BME280;67666;55.862;49.094;2023-02-26T15:54:48;99557.19;;;21.22;22.39
78056;BME280;67666;55.862;49.094;2023-02-26T15:57:17;99553.66;;;21.23;22.14
78056;BME280;67666;55.862;49.094;2023-02-26T15:59:50;99528.59;;;21.17;22.30
78056;BME280;67666;55.862;49.094;2023-02-26T16:02:25;99536.28;;;21.22;22.36
78056;BME280;67666;55.862;49.094;2023-02-26T16:04:51;99539.69;;;21.24;22.22
78056;BME280;67666;55.862;49.094;2023-02-26T16:07:18;99548.34;;;21.26;22.18
78056;BME280;67666;55.862;49.094;2023-02-26T16:09:47;99557.25;;;21.18;22.32
78056;BME280;67666;55.862;49.094;2023-02-26T16:12:20;99558.34;;;21.11;22.33
78056;BME280;67666;55.862;49.094;2023-02-26T16:14:58;99552.47;;;21.03;22.36
78056;BME280;67666;55.862;49.094;2023-02-26T16:17:28;99545.75;;;20.96;22.56